Time;durP1;ratioP1;P1;durP2;ratioP2;P2;SDS_P1;SDS_P2;PMS_P1;PMS_P2;Temp;Humidity;BMP_temperature;BMP_pressure;BME280_temperature;BME280_humidity;BME280_pressure;Samples;Min_cycle;Max_cycle;Signal;HPM_P1;HPM_P2
2022/11/30 00:01:14;;;;;;;39.38;21.27;;;8.00;99.90;;;;;;5095743;27;20039;-83
2022/11/30 00:03:40;;;;;;;41.08;22.63;;;7.80;99.90;;;;;;5113007;27;20125;-82
2022/11/30 00:06:08;;;;;;;41.17;22.65;;;7.50;99.90;;;;;;5095302;27;20533;-82
2022/11/30 00:08:34;;;;;;;38.85;20.15;;;7.00;99.90;;;;;;5129477;27;20231;-83
2022/11/30 00:11:00;;;;;;;42.53;20.80;;;7.00;99.90;;;;;;5112207;27;20463;-83
2022/11/30 00:13:25;;;;;;;42.33;23.95;;;7.00;99.90;;;;;;5095136;27;20047;-82
2022/11/30 00:15:51;;;;;;;43.95;21.02;;;7.00;99.90;;;;;;5078748;27;20097;-82
2022/11/30 00:18:17;;;;;;;41.63;23.17;;;7.40;99.90;;;;;;5094863;27;20051;-82
2022/11/30 00:20:43;;;;;;;45.40;22.35;;;7.00;99.90;;;;;;5112222;27;20058;-82
2022/11/30 00:23:09;;;;;;;45.28;23.13;;;7.00;99.90;;;;;;5112081;27;20038;-82
2022/11/30 00:25:35;;;;;;;47.28;21.92;;;7.00;99.90;;;;;;5112661;27;20121;-82
2022/11/30 00:28:01;;;;;;;44.03;23.13;;;7.90;99.90;;;;;;5112298;27;20050;-82
2022/11/30 00:30:27;;;;;;;48.05;23.20;;;6.90;99.90;;;;;;5112547;27;20533;-82
2022/11/30 00:32:56;;;;;;;47.88;22.48;;;6.80;99.90;;;;;;5129459;27;20551;-82
2022/11/30 00:35:22;;;;;;;46.45;22.20;;;7.00;99.90;;;;;;5129032;27;20563;-82
2022/11/30 00:37:48;;;;;;;56.15;23.80;;;7.40;99.90;;;;;;5094675;27;20084;-82
2022/11/30 00:40:14;;;;;;;48.50;23.55;;;6.60;99.90;;;;;;5094369;27;20381;-82
2022/11/30 00:42:39;;;;;;;47.33;22.20;;;6.60;99.90;;;;;;5129230;27;20114;-82
2022/11/30 00:45:05;;;;;;;45.95;23.52;;;7.60;99.90;;;;;;5128434;27;20042;-82
2022/11/30 00:47:31;;;;;;;52.03;23.38;;;6.50;99.90;;;;;;5111789;27;20046;-82
2022/11/30 00:49:57;;;;;;;49.92;23.92;;;6.40;99.90;;;;;;5112105;27;20061;-82
2022/11/30 00:52:22;;;;;;;53.58;24.08;;;6.40;99.90;;;;;;5128308;27;20496;-82
2022/11/30 00:54:48;;;;;;;55.85;24.83;;;6.40;99.90;;;;;;5111800;27;20046;-82
2022/11/30 00:57:14;;;;;;;45.88;22.85;;;6.40;99.90;;;;;;5128226;27;20563;-82
2022/11/30 00:59:39;;;;;;;48.92;23.80;;;6.50;99.90;;;;;;5128957;27;20042;-82
2022/11/30 01:02:05;;;;;;;49.97;23.08;;;6.40;99.90;;;;;;5110743;27;20371;-83
2022/11/30 01:04:31;;;;;;;47.72;24.27;;;6.50;99.90;;;;;;5110845;27;20121;-83
2022/11/30 01:06:56;;;;;;;41.92;22.40;;;6.50;99.90;;;;;;5111322;27;20157;-82
2022/11/30 01:09:22;;;;;;;51.33;23.88;;;6.90;99.90;;;;;;5094917;27;20531;-82
2022/11/30 01:11:48;;;;;;;51.55;23.55;;;6.60;99.90;;;;;;5128384;27;20078;-82
2022/11/30 01:14:14;;;;;;;51.80;21.85;;;6.60;99.90;;;;;;5127939;27;20043;-82
2022/11/30 01:16:39;;;;;;;41.40;23.45;;;6.60;99.90;;;;;;5094190;27;20049;-82
2022/11/30 01:19:05;;;;;;;48.50;22.90;;;6.60;99.90;;;;;;5110776;27;20580;-82
2022/11/30 01:21:31;;;;;;;45.22;21.83;;;6.60;99.90;;;;;;5111668;27;20147;-83
2022/11/30 01:23:56;;;;;;;39.58;20.38;;;6.60;99.90;;;;;;5094027;27;20066;-82
2022/11/30 01:26:22;;;;;;;39.88;19.90;;;6.60;99.90;;;;;;5110871;27;20122;-82
2022/11/30 01:28:53;;;;;;;37.50;20.65;;;6.50;99.90;;;;;;5127927;27;20058;-82
2022/11/30 01:31:20;;;;;;;34.45;19.60;;;6.50;99.90;;;;;;5128421;27;20058;-82
2022/11/30 01:33:50;;;;;;;35.55;18.98;;;6.50;99.90;;;;;;5110763;27;20481;-81
2022/11/30 01:36:19;;;;;;;37.72;20.42;;;6.50;99.90;;;;;;5110749;27;20100;-82
2022/11/30 01:38:51;;;;;;;41.10;21.92;;;6.50;99.90;;;;;;5127997;27;20043;-82
2022/11/30 01:41:21;;;;;;;37.85;20.52;;;6.50;99.90;;;;;;5127735;27;20335;-82
2022/11/30 01:43:52;;;;;;;37.10;21.88;;;6.50;99.90;;;;;;5111104;27;20134;-82
2022/11/30 01:46:31;;;;;;;38.75;21.70;;;6.50;99.90;;;;;;5127767;27;20103;-82
2022/11/30 01:49:09;;;;;;;36.85;20.38;;;6.50;99.90;;;;;;5110493;27;20035;-81
2022/11/30 01:52:06;;;;;;;37.42;21.55;;;6.50;99.90;;;;;;5110788;27;20430;-81
2022/11/30 01:54:39;;;;;;;37.15;19.75;;;6.50;99.90;;;;;;5118147;27;20094;-82
2022/11/30 01:57:24;;;;;;;34.10;18.83;;;6.40;99.90;;;;;;5111038;27;20471;-82
2022/11/30 01:59:52;;;;;;;32.97;18.77;;;6.50;99.90;;;;;;5127595;27;20039;-82
2022/11/30 02:02:23;;;;;;;35.45;19.45;;;6.90;99.90;;;;;;5127438;27;20389;-82
2022/11/30 02:04:50;;;;;;;33.38;19.25;;;6.50;99.90;;;;;;5127961;27;20107;-82
2022/11/30 02:07:15;;;;;;;36.88;19.48;;;7.40;99.90;;;;;;5127543;27;20047;-82
2022/11/30 02:09:43;;;;;;;30.80;18.63;;;6.50;99.90;;;;;;5076341;27;20035;-81
2022/11/30 02:12:41;;;;;;;34.22;19.08;;;6.70;99.90;;;;;;5127384;27;20095;-82
2022/11/30 02:15:22;;;;;;;28.88;17.23;;;6.50;99.90;;;;;;5121905;27;20047;-82
2022/11/30 02:17:47;;;;;;;31.35;18.35;;;6.40;99.90;;;;;;5132158;27;20448;-82
2022/11/30 02:20:40;;;;;;;35.42;19.52;;;7.30;99.90;;;;;;5131599;27;20046;-83
2022/11/30 02:23:27;;;;;;;38.03;19.48;;;6.50;99.90;;;;;;5114324;27;20046;-82
2022/11/30 02:26:33;;;;;;;36.45;19.90;;;6.50;99.90;;;;;;5114740;27;20043;-82
2022/11/30 02:29:23;;;;;;;38.58;19.92;;;6.50;99.90;;;;;;5131047;27;20087;-81
2022/11/30 02:31:52;;;;;;;45.70;21.13;;;6.50;99.90;;;;;;5130824;27;20480;-81
2022/11/30 02:34:21;;;;;;;38.22;21.60;;;6.50;99.90;;;;;;5131510;27;20054;-81
2022/11/30 02:36:47;;;;;;;37.45;20.45;;;6.50;99.90;;;;;;5114035;27;20038;-82
2022/11/30 02:39:13;;;;;;;33.55;19.65;;;6.60;99.90;;;;;;5097358;27;20081;-81
2022/11/30 02:41:39;;;;;;;35.80;21.27;;;6.60;99.90;;;;;;5113458;27;20070;-82
2022/11/30 02:44:07;;;;;;;30.92;18.45;;;6.60;99.90;;;;;;5097654;27;20468;-82
2022/11/30 02:46:45;;;;;;;34.55;21.40;;;6.60;99.90;;;;;;5097154;27;20111;-82
2022/11/30 02:49:31;;;;;;;33.85;18.77;;;6.60;99.90;;;;;;5131005;27;20043;-82
2022/11/30 02:51:58;;;;;;;38.55;21.23;;;6.60;99.90;;;;;;5114268;27;20106;-82
2022/11/30 02:54:24;;;;;;;44.10;20.60;;;6.60;99.90;;;;;;5131030;27;20095;-82
2022/11/30 02:56:49;;;;;;;36.15;20.02;;;7.40;99.90;;;;;;5114330;27;20403;-83
2022/11/30 02:59:15;;;;;;;35.42;20.08;;;6.60;99.90;;;;;;5096768;27;20058;-82
2022/11/30 03:01:41;;;;;;;41.40;22.50;;;6.60;99.90;;;;;;5130593;27;20042;-82
2022/11/30 03:04:07;;;;;;;43.08;21.48;;;6.60;99.90;;;;;;5097324;27;20077;-82
2022/11/30 03:06:32;;;;;;;40.95;22.25;;;6.60;99.90;;;;;;5130228;27;20121;-82
2022/11/30 03:08:58;;;;;;;44.42;22.92;;;7.40;99.90;;;;;;5113253;27;20043;-82
2022/11/30 03:11:24;;;;;;;38.58;21.23;;;6.60;99.90;;;;;;5096627;27;20046;-82
2022/11/30 03:13:50;;;;;;;43.45;22.52;;;6.70;99.90;;;;;;5096991;27;20034;-82
2022/11/30 03:16:16;;;;;;;40.35;20.85;;;6.60;99.90;;;;;;5112973;27;20069;-82
2022/11/30 03:18:42;;;;;;;38.40;23.55;;;7.70;99.90;;;;;;5130456;27;20050;-82
2022/11/30 03:21:09;;;;;;;38.63;21.63;;;7.80;99.90;;;;;;5149636;27;20552;-82
2022/11/30 03:23:36;;;;;;;37.78;21.00;;;6.90;99.90;;;;;;5112982;27;20047;-82
2022/11/30 03:26:02;;;;;;;36.42;20.52;;;6.70;99.90;;;;;;5131247;27;20133;-81
2022/11/30 03:28:28;;;;;;;33.83;20.10;;;6.70;99.90;;;;;;5129568;27;20110;-82
2022/11/30 03:30:54;;;;;;;43.53;22.30;;;6.70;99.90;;;;;;5097196;27;20138;-81
2022/11/30 03:33:20;;;;;;;35.42;19.33;;;6.60;99.90;;;;;;5112562;27;20038;-82
2022/11/30 03:35:45;;;;;;;36.20;20.48;;;6.60;99.90;;;;;;5113006;27;20042;-82
2022/11/30 03:38:11;;;;;;;38.67;20.52;;;6.60;99.90;;;;;;5130357;27;20106;-82
2022/11/30 03:40:37;;;;;;;41.63;20.58;;;6.60;99.90;;;;;;5129811;27;20067;-82
2022/11/30 03:43:03;;;;;;;38.05;21.00;;;6.60;99.90;;;;;;5130453;27;20125;-82
2022/11/30 03:45:29;;;;;;;37.95;21.52;;;6.90;99.90;;;;;;5112110;27;20126;-83
2022/11/30 03:47:55;;;;;;;38.15;21.98;;;6.60;99.90;;;;;;5096281;27;20130;-82
2022/11/30 03:50:20;;;;;;;34.75;20.50;;;6.70;99.90;;;;;;5112500;27;20050;-82
2022/11/30 03:52:46;;;;;;;36.50;20.80;;;6.70;99.90;;;;;;5096038;27;20425;-83
2022/11/30 03:55:12;;;;;;;34.83;20.67;;;6.70;99.90;;;;;;5112820;27;20039;-81
2022/11/30 03:57:37;;;;;;;35.10;20.95;;;6.70;99.90;;;;;;5112187;27;20054;-83
2022/11/30 04:00:05;;;;;;;33.10;20.48;;;6.90;99.90;;;;;;5130680;27;20433;-82
2022/11/30 04:02:31;;;;;;;35.65;20.05;;;6.70;99.90;;;;;;5129536;27;20031;-82
2022/11/30 04:04:57;;;;;;;40.17;20.52;;;6.70;99.90;;;;;;5130177;27;20541;-82
2022/11/30 04:07:22;;;;;;;39.08;20.35;;;7.60;99.90;;;;;;5112321;27;20109;-82
2022/11/30 04:09:48;;;;;;;38.15;20.40;;;6.70;99.90;;;;;;5129944;27;20045;-82
2022/11/30 04:12:14;;;;;;;34.95;19.42;;;6.70;99.90;;;;;;5111744;27;20046;-81
2022/11/30 04:14:40;;;;;;;33.25;19.60;;;6.70;99.90;;;;;;5095417;27;20054;-81
2022/11/30 04:17:05;;;;;;;35.08;20.20;;;6.70;99.90;;;;;;5113041;27;20046;-82
2022/11/30 04:19:31;;;;;;;38.58;20.80;;;6.70;99.90;;;;;;5128660;27;20428;-81
2022/11/30 04:21:57;;;;;;;37.05;20.92;;;7.70;99.90;;;;;;5129488;27;20037;-82
2022/11/30 04:24:22;;;;;;;34.13;18.67;;;7.70;99.90;;;;;;5095106;27;20039;-82
2022/11/30 04:26:48;;;;;;;37.97;21.05;;;6.70;99.90;;;;;;5129731;27;20047;-82
2022/11/30 04:29:14;;;;;;;39.20;20.88;;;6.70;99.90;;;;;;5095996;27;20504;-82
2022/11/30 04:31:39;;;;;;;42.88;20.58;;;6.70;99.90;;;;;;5115556;27;20046;-83
2022/11/30 04:34:05;;;;;;;38.22;21.40;;;6.70;99.90;;;;;;5098568;27;20047;-82
2022/11/30 04:36:31;;;;;;;35.17;19.40;;;6.70;99.90;;;;;;5114999;27;20057;-82
2022/11/30 04:38:56;;;;;;;43.20;21.17;;;6.70;99.90;;;;;;5098038;27;20095;-82
2022/11/30 04:41:22;;;;;;;42.30;21.27;;;7.10;99.90;;;;;;5131880;27;20508;-82
2022/11/30 04:43:48;;;;;;;43.08;20.95;;;6.70;99.90;;;;;;5082116;27;20042;-82
2022/11/30 04:46:14;;;;;;;45.85;21.38;;;6.70;99.90;;;;;;5080381;27;20058;-82
2022/11/30 04:48:39;;;;;;;43.15;21.85;;;6.80;99.90;;;;;;5098511;27;20043;-82
2022/11/30 04:51:07;;;;;;;48.28;22.00;;;7.50;99.90;;;;;;5115367;27;20043;-82
2022/11/30 04:53:34;;;;;;;44.40;21.20;;;6.70;99.90;;;;;;5131855;27;20047;-82
2022/11/30 04:56:08;;;;;;;52.05;21.95;;;6.70;99.90;;;;;;5132412;27;20038;-82
2022/11/30 04:58:34;;;;;;;53.50;24.08;;;7.10;99.90;;;;;;5131199;27;20093;-82
2022/11/30 05:01:00;;;;;;;51.10;24.33;;;6.70;99.90;;;;;;5115388;27;20035;-81
2022/11/30 05:03:26;;;;;;;50.85;22.92;;;6.70;99.90;;;;;;5131250;27;20525;-82
2022/11/30 05:05:52;;;;;;;56.08;22.20;;;7.90;99.90;;;;;;5132018;27;20726;-82
2022/11/30 05:08:17;;;;;;;54.55;22.60;;;6.70;99.90;;;;;;5132003;27;20442;-82
2022/11/30 05:10:43;;;;;;;57.90;22.92;;;7.00;99.90;;;;;;5130971;27;20039;-82
2022/11/30 05:13:09;;;;;;;53.80;22.05;;;6.80;99.90;;;;;;5131815;27;20138;-82
2022/11/30 05:15:34;;;;;;;49.47;22.50;;;6.70;99.90;;;;;;5131579;27;20114;-81
2022/11/30 05:18:00;;;;;;;57.80;22.92;;;7.50;99.90;;;;;;5151139;27;20035;-81
2022/11/30 05:20:28;;;;;;;51.72;23.23;;;7.20;99.90;;;;;;5149639;27;20061;-81
2022/11/30 05:22:53;;;;;;;50.17;22.10;;;6.70;99.90;;;;;;5150177;27;20046;-81
2022/11/30 05:25:19;;;;;;;63.08;21.65;;;6.70;99.90;;;;;;5131857;27;20066;-83
2022/11/30 05:27:45;;;;;;;54.72;22.45;;;6.70;99.90;;;;;;5149713;27;20491;-83
2022/11/30 05:30:11;;;;;;;48.22;20.90;;;6.70;99.90;;;;;;5131608;27;20039;-83
2022/11/30 05:32:37;;;;;;;52.67;20.92;;;6.60;99.90;;;;;;5096838;27;20050;-83
2022/11/30 05:35:03;;;;;;;58.45;22.80;;;6.70;99.90;;;;;;5151104;27;20035;-82
2022/11/30 05:37:29;;;;;;;46.13;21.65;;;6.70;99.90;;;;;;5148912;27;20393;-80
2022/11/30 05:39:54;;;;;;;51.20;22.52;;;6.70;99.90;;;;;;5147778;27;20038;-81
2022/11/30 05:42:20;;;;;;;49.47;22.13;;;6.60;99.90;;;;;;5129404;27;20042;-81
2022/11/30 05:44:46;;;;;;;55.85;22.73;;;6.60;99.90;;;;;;5128800;27;20306;-81
2022/11/30 05:47:12;;;;;;;47.67;21.25;;;6.70;99.90;;;;;;5128289;27;20130;-78
2022/11/30 05:49:38;;;;;;;43.70;21.15;;;6.60;99.90;;;;;;5145895;27;20051;-78
2022/11/30 05:52:04;;;;;;;41.28;18.98;;;6.60;99.90;;;;;;5146588;27;20497;-78
2022/11/30 05:54:29;;;;;;;51.83;21.20;;;6.60;99.90;;;;;;5127322;27;20042;-78
2022/11/30 05:56:55;;;;;;;52.05;22.33;;;6.60;99.90;;;;;;5111386;27;20085;-79
2022/11/30 05:59:21;;;;;;;48.05;20.88;;;7.10;99.90;;;;;;5127376;27;20122;-78
2022/11/30 06:01:47;;;;;;;47.58;20.92;;;7.40;99.90;;;;;;5110832;27;20041;-79
2022/11/30 06:04:12;;;;;;;47.75;20.63;;;6.60;99.90;;;;;;5111496;27;20417;-78
2022/11/30 06:06:38;;;;;;;41.75;18.92;;;6.50;99.90;;;;;;5110153;27;20043;-81
2022/11/30 06:09:04;;;;;;;46.75;20.25;;;6.20;99.90;;;;;;5110983;27;20050;-80
2022/11/30 06:11:29;;;;;;;46.03;20.02;;;6.50;99.90;;;;;;5126831;27;20043;-79
2022/11/30 06:13:55;;;;;;;52.55;21.75;;;6.50;99.90;;;;;;5110973;27;20042;-80
2022/11/30 06:16:21;;;;;;;45.13;20.40;;;6.50;99.90;;;;;;5145321;27;20498;-79
2022/11/30 06:18:46;;;;;;;45.97;20.33;;;6.50;99.90;;;;;;5146630;27;20039;-79
2022/11/30 06:21:12;;;;;;;43.58;19.75;;;6.50;99.90;;;;;;5146364;27;20062;-80
2022/11/30 06:23:38;;;;;;;44.90;20.10;;;6.50;99.90;;;;;;5093131;27;20043;-79
2022/11/30 06:26:08;;;;;;;48.40;20.80;;;6.50;99.90;;;;;;5093619;27;20390;-83
2022/11/30 06:28:34;;;;;;;42.10;20.20;;;7.00;99.90;;;;;;5109572;27;20047;-80
2022/11/30 06:31:01;;;;;;;38.55;18.92;;;6.50;99.90;;;;;;5110402;27;20038;-80
2022/11/30 06:33:27;;;;;;;49.38;20.35;;;6.40;99.90;;;;;;5126279;27;20049;-80
2022/11/30 06:35:52;;;;;;;54.45;26.00;;;6.40;99.90;;;;;;5128165;27;20031;-80
2022/11/30 06:38:18;;;;;;;53.58;26.15;;;6.40;99.90;;;;;;5127146;27;20095;-80
2022/11/30 06:40:44;;;;;;;40.25;19.33;;;6.40;99.90;;;;;;5109678;27;20450;-80
2022/11/30 06:43:10;;;;;;;41.50;17.95;;;6.40;99.90;;;;;;5110897;27;20043;-81
2022/11/30 06:45:35;;;;;;;41.45;17.70;;;6.40;99.90;;;;;;5126815;27;20413;-80
2022/11/30 06:48:01;;;;;;;33.05;16.80;;;6.30;99.90;;;;;;5110268;27;20035;-83
2022/11/30 06:50:26;;;;;;;38.22;16.88;;;6.40;99.90;;;;;;5092306;27;20042;-82
2022/11/30 06:52:52;;;;;;;31.60;16.25;;;6.30;99.90;;;;;;5127407;27;20081;-80
2022/11/30 06:55:18;;;;;;;35.00;15.88;;;6.40;99.90;;;;;;5127335;27;20038;-80
2022/11/30 06:57:44;;;;;;;33.47;14.98;;;6.30;99.90;;;;;;5110336;27;20490;-81
2022/11/30 07:00:11;;;;;;;31.65;16.45;;;6.30;99.90;;;;;;5127193;27;20043;-81
2022/11/30 07:02:37;;;;;;;32.45;16.33;;;6.30;99.90;;;;;;5094555;27;20043;-80
2022/11/30 07:05:03;;;;;;;32.78;15.95;;;6.30;99.90;;;;;;5131645;27;20379;-79
2022/11/30 07:07:29;;;;;;;24.48;14.20;;;6.30;99.90;;;;;;5130021;27;20187;-79
2022/11/30 07:09:56;;;;;;;28.88;15.82;;;6.30;99.90;;;;;;5114392;27;20193;-79
2022/11/30 07:12:22;;;;;;;33.65;16.50;;;6.30;99.90;;;;;;5130646;27;20084;-80
2022/11/30 07:14:51;;;;;;;33.25;14.00;;;6.30;99.90;;;;;;5113826;27;20070;-79
2022/11/30 07:17:17;;;;;;;32.33;15.90;;;6.30;99.90;;;;;;5131584;27;20042;-79
2022/11/30 07:19:43;;;;;;;31.80;15.43;;;6.30;99.90;;;;;;5130057;27;20123;-79
2022/11/30 07:22:09;;;;;;;34.10;15.55;;;6.30;99.90;;;;;;5113699;27;20055;-79
2022/11/30 07:27:18;;;;;;;30.15;16.00;;;6.30;99.90;;;;;;5116445;27;20035;-79
2022/11/30 07:29:47;;;;;;;29.40;14.82;;;6.30;99.90;;;;;;5112780;27;20043;-79
2022/11/30 07:32:13;;;;;;;29.05;13.05;;;6.30;99.90;;;;;;5096371;27;20062;-79
2022/11/30 07:34:39;;;;;;;26.08;12.48;;;7.40;99.90;;;;;;5114404;27;20053;-81
2022/11/30 07:37:04;;;;;;;27.25;13.88;;;6.30;99.90;;;;;;5112392;27;20068;-78
2022/11/30 07:39:30;;;;;;;27.58;14.05;;;6.30;99.90;;;;;;5112960;27;20057;-78
2022/11/30 07:41:56;;;;;;;25.45;13.55;;;6.30;99.90;;;;;;5094936;27;20095;-78
2022/11/30 07:44:21;;;;;;;32.85;13.30;;;6.30;99.90;;;;;;5130385;27;20070;-79
2022/11/30 07:46:47;;;;;;;27.40;13.48;;;6.30;99.90;;;;;;5112036;27;20051;-80
2022/11/30 07:49:13;;;;;;;23.60;13.02;;;6.30;99.90;;;;;;5112261;27;20490;-80
2022/11/30 07:51:39;;;;;;;29.98;14.75;;;7.20;99.90;;;;;;5095545;27;20042;-79
2022/11/30 07:54:05;;;;;;;28.67;13.43;;;6.30;99.90;;;;;;5111714;27;20054;-79
2022/11/30 07:56:30;;;;;;;27.75;14.68;;;6.30;99.90;;;;;;5130244;27;20389;-79
2022/11/30 07:58:59;;;;;;;26.88;14.35;;;6.30;99.90;;;;;;5128796;27;20509;-79
2022/11/30 08:01:30;;;;;;;34.53;14.93;;;6.30;99.90;;;;;;5112929;27;20179;-80
2022/11/30 08:03:57;;;;;;;26.48;15.07;;;6.30;99.90;;;;;;5129153;27;20035;-79
2022/11/30 08:06:25;;;;;;;24.85;14.40;;;6.30;99.90;;;;;;5111967;27;20047;-79
2022/11/30 08:08:53;;;;;;;25.70;14.18;;;6.20;99.90;;;;;;5130135;27;20530;-79
2022/11/30 08:11:21;;;;;;;27.23;13.70;;;7.40;99.90;;;;;;5112262;27;20049;-79
2022/11/30 08:13:47;;;;;;;28.80;15.18;;;6.30;99.90;;;;;;5112365;27;20134;-79
2022/11/30 08:16:19;;;;;;;30.63;14.70;;;6.30;99.90;;;;;;5127944;27;20485;-80
2022/11/30 08:18:46;;;;;;;26.15;13.98;;;6.30;99.90;;;;;;5113022;27;20402;-79
2022/11/30 08:21:17;;;;;;;25.90;13.30;;;6.30;99.90;;;;;;5129010;27;20043;-79
2022/11/30 08:23:48;;;;;;;29.95;15.20;;;6.30;99.90;;;;;;5128630;27;20043;-79
2022/11/30 08:26:15;;;;;;;23.83;13.18;;;6.30;99.90;;;;;;5129124;27;20050;-80
2022/11/30 08:28:42;;;;;;;24.15;14.27;;;6.30;99.90;;;;;;5112232;27;20039;-80
2022/11/30 08:31:11;;;;;;;25.15;15.63;;;6.80;99.90;;;;;;5112748;27;20122;-79
2022/11/30 08:33:38;;;;;;;25.33;14.65;;;6.30;99.90;;;;;;5128240;27;20035;-79
2022/11/30 08:36:18;;;;;;;23.73;14.10;;;7.10;99.90;;;;;;5112664;27;20042;-79
2022/11/30 08:38:44;;;;;;;26.50;14.68;;;6.30;99.90;;;;;;5129175;27;20038;-80
2022/11/30 08:41:13;;;;;;;20.52;14.00;;;6.40;99.90;;;;;;5111360;27;20042;-79
2022/11/30 08:43:39;;;;;;;28.23;15.05;;;6.40;99.90;;;;;;5111857;27;20046;-80
2022/11/30 08:46:07;;;;;;;29.67;15.40;;;6.40;99.90;;;;;;5127640;27;20498;-79
2022/11/30 08:48:34;;;;;;;31.50;16.13;;;6.40;99.90;;;;;;5129194;27;20129;-80
2022/11/30 08:51:01;;;;;;;27.73;14.98;;;6.90;99.90;;;;;;5111090;27;20046;-79
2022/11/30 08:53:27;;;;;;;29.45;15.52;;;6.40;99.90;;;;;;5128745;27;20401;-79
2022/11/30 08:56:05;;;;;;;32.83;19.10;;;6.40;99.90;;;;;;5111960;27;20042;-80
2022/11/30 08:58:34;;;;;;;35.85;17.58;;;6.40;99.90;;;;;;5111347;27;20385;-79
2022/11/30 09:01:10;;;;;;;30.17;16.13;;;7.60;99.90;;;;;;5111807;27;20046;-79
2022/11/30 09:03:36;;;;;;;33.20;17.95;;;6.50;99.90;;;;;;5110205;27;20039;-79
2022/11/30 09:06:11;;;;;;;32.50;17.17;;;6.50;99.90;;;;;;5111884;27;20042;-79
2022/11/30 09:08:38;;;;;;;34.45;18.35;;;6.60;99.90;;;;;;5128060;27;20043;-79
2022/11/30 09:11:11;;;;;;;33.03;16.23;;;6.80;99.90;;;;;;5110883;27;20061;-80
2022/11/30 09:13:38;;;;;;;34.00;16.33;;;6.60;99.90;;;;;;5128363;27;20058;-80
2022/11/30 09:16:04;;;;;;;35.95;18.63;;;6.60;99.90;;;;;;5093073;27;20489;-78
2022/11/30 09:18:30;;;;;;;37.53;18.60;;;6.60;99.90;;;;;;5094564;27;20130;-80
2022/11/30 09:21:00;;;;;;;32.65;17.42;;;7.20;99.90;;;;;;5093353;27;20096;-79
2022/11/30 09:23:26;;;;;;;35.72;18.17;;;6.60;99.90;;;;;;5094568;27;20517;-80
2022/11/30 09:26:00;;;;;;;36.58;18.92;;;7.40;99.90;;;;;;5127666;27;20046;-80
2022/11/30 09:28:26;;;;;;;36.22;17.95;;;6.70;99.90;;;;;;5110533;27;20049;-80
2022/11/30 09:30:52;;;;;;;35.65;18.23;;;7.20;99.90;;;;;;5127718;27;20043;-80
2022/11/30 09:33:19;;;;;;;35.00;19.00;;;6.70;99.90;;;;;;5092452;27;20038;-80
2022/11/30 09:35:57;;;;;;;34.20;18.45;;;6.80;99.90;;;;;;5128488;27;20047;-80
2022/11/30 09:38:23;;;;;;;32.42;17.42;;;6.80;99.90;;;;;;5127835;27;20393;-80
2022/11/30 09:40:55;;;;;;;35.10;18.02;;;6.80;99.90;;;;;;5110163;27;20039;-80
2022/11/30 09:43:29;;;;;;;37.63;19.27;;;6.80;99.90;;;;;;5127706;27;20130;-80
2022/11/30 09:46:03;;;;;;;33.92;18.25;;;6.80;99.90;;;;;;5110118;27;20391;-80
2022/11/30 09:48:41;;;;;;;38.30;19.15;;;6.80;99.90;;;;;;5128711;27;20406;-80
2022/11/30 09:51:14;;;;;;;43.90;21.23;;;6.90;99.90;;;;;;5110831;27;20042;-80
2022/11/30 09:53:50;;;;;;;43.47;20.20;;;7.60;99.90;;;;;;5127112;27;20053;-80
2022/11/30 09:56:29;;;;;;;41.33;20.83;;;6.80;99.90;;;;;;5127465;27;20053;-80
2022/11/30 09:59:15;;;;;;;40.55;19.77;;;6.90;99.90;;;;;;5109888;27;20117;-80
2022/11/30 10:01:43;;;;;;;42.83;20.20;;;6.90;99.90;;;;;;5127756;27;20043;-80
2022/11/30 10:04:26;;;;;;;39.30;21.17;;;7.00;99.90;;;;;;5127064;27;20042;-80
2022/11/30 10:07:08;;;;;;;39.33;20.08;;;7.60;99.90;;;;;;5109701;27;20059;-80
2022/11/30 10:09:37;;;;;;;36.08;20.02;;;7.60;99.90;;;;;;5110588;27;20046;-79
2022/11/30 10:12:12;;;;;;;45.17;21.27;;;7.50;99.90;;;;;;5125993;27;20050;-79
2022/11/30 10:15:23;;;;;;;47.10;22.60;;;7.00;99.90;;;;;;5128170;27;20038;-79
2022/11/30 10:18:13;;;;;;;39.03;20.13;;;7.10;99.90;;;;;;5064068;27;20569;-82
2022/11/30 10:21:13;;;;;;;38.92;20.15;;;7.10;99.90;;;;;;5125888;27;20526;-80
2022/11/30 10:23:39;;;;;;;45.50;21.38;;;7.10;99.90;;;;;;5093859;27;20051;-80
2022/11/30 10:26:13;;;;;;;40.83;20.95;;;7.10;99.90;;;;;;5110054;27;20042;-80
2022/11/30 10:28:53;;;;;;;44.13;22.10;;;7.10;99.90;;;;;;5126569;27;20058;-80
2022/11/30 10:31:43;;;;;;;40.17;20.05;;;7.10;99.90;;;;;;5128288;27;20447;-80
2022/11/30 10:34:22;;;;;;;36.90;19.65;;;7.10;99.90;;;;;;5126966;27;20045;-80
2022/11/30 10:37:00;;;;;;;36.92;19.65;;;7.10;99.90;;;;;;5110339;27;20046;-81
2022/11/30 10:39:37;;;;;;;34.13;18.75;;;7.10;99.90;;;;;;5131568;27;20554;-80
2022/11/30 10:42:14;;;;;;;30.65;17.83;;;7.10;99.90;;;;;;5130073;27;20086;-81
2022/11/30 10:44:43;;;;;;;31.92;18.30;;;7.00;99.90;;;;;;5114451;27;20046;-81
2022/11/30 10:47:17;;;;;;;29.63;17.20;;;7.00;99.90;;;;;;5131067;27;20131;-80
2022/11/30 10:49:51;;;;;;;30.45;18.27;;;7.00;99.90;;;;;;5113552;27;20046;-80
2022/11/30 10:52:26;;;;;;;30.15;18.15;;;7.90;99.90;;;;;;5131130;27;20478;-80
2022/11/30 10:54:54;;;;;;;31.35;17.88;;;7.10;99.90;;;;;;5130192;27;20046;-80
2022/11/30 10:57:27;;;;;;;30.60;18.63;;;7.00;99.90;;;;;;5098025;27;20042;-81
2022/11/30 10:59:54;;;;;;;;;;;7.10;99.90;;;;;;5131135;27;20118;-81
2022/11/30 11:02:52;;;;;;;36.60;18.45;;;7.00;99.90;;;;;;5113874;27;19942;-81
2022/11/30 11:05:24;;;;;;;31.20;18.77;;;7.30;99.90;;;;;;5075432;27;20055;-81
2022/11/30 11:07:55;;;;;;;34.95;19.17;;;7.00;99.90;;;;;;5129963;27;20121;-81
2022/11/30 11:10:30;;;;;;;35.50;20.08;;;7.00;99.90;;;;;;5131640;27;20047;-79
2022/11/30 11:12:56;;;;;;;32.90;18.40;;;7.10;99.90;;;;;;5113924;27;20164;-80
2022/11/30 11:15:28;;;;;;;33.13;18.48;;;7.00;99.90;;;;;;5113452;27;20567;-80
2022/11/30 11:18:11;;;;;;;34.78;19.55;;;7.10;99.90;;;;;;5131353;27;20468;-80
2022/11/30 11:20:41;;;;;;;32.92;18.92;;;7.10;99.90;;;;;;5130096;27;20417;-80
2022/11/30 11:23:26;;;;;;;30.70;18.42;;;7.20;99.90;;;;;;5131347;27;20106;-80
2022/11/30 11:25:52;;;;;;;32.35;18.83;;;7.20;99.90;;;;;;5113243;27;20047;-80
2022/11/30 11:28:20;;;;;;;34.35;20.63;;;7.30;99.90;;;;;;5112513;27;20087;-80
2022/11/30 11:30:46;;;;;;;33.72;19.25;;;7.30;99.90;;;;;;5113594;27;20039;-80
2022/11/30 11:33:12;;;;;;;34.88;19.40;;;7.40;99.90;;;;;;5095396;27;20123;-80
2022/11/30 11:35:48;;;;;;;31.83;19.52;;;8.40;99.90;;;;;;5130538;27;20470;-80
2022/11/30 11:38:21;;;;;;;34.67;19.17;;;7.50;99.90;;;;;;5129432;27;20482;-80
2022/11/30 11:41:13;;;;;;;;;;;7.40;99.90;;;;;;5130781;27;20039;-80
2022/11/30 11:44:03;;;;;;;30.05;18.92;;;7.40;99.90;;;;;;5124969;27;19925;-80
2022/11/30 11:46:35;;;;;;;33.30;18.88;;;7.30;99.90;;;;;;5111565;27;20058;-80
2022/11/30 11:49:04;;;;;;;30.80;19.10;;;7.40;99.90;;;;;;5130452;27;20046;-79
2022/11/30 11:51:38;;;;;;;38.05;20.70;;;7.70;99.90;;;;;;5129564;27;20039;-81
2022/11/30 11:54:17;;;;;;;32.05;19.52;;;8.20;99.90;;;;;;5112358;27;20446;-79
2022/11/30 11:56:43;;;;;;;32.67;19.50;;;7.20;99.90;;;;;;5130220;27;20043;-80
2022/11/30 11:59:09;;;;;;;30.33;17.77;;;7.20;99.90;;;;;;5128691;27;20035;-81
2022/11/30 12:02:00;;;;;;;34.90;18.95;;;7.20;99.90;;;;;;5130199;27;20047;-82
2022/11/30 12:04:46;;;;;;;32.22;20.30;;;7.30;99.90;;;;;;5130149;27;20050;-81
2022/11/30 12:07:21;;;;;;;33.25;19.45;;;7.30;99.90;;;;;;5129820;27;20414;-81
2022/11/30 12:10:24;;;;;;;33.78;19.70;;;7.20;99.90;;;;;;5112972;27;20038;-81
2022/11/30 12:12:49;;;;;;;32.30;18.67;;;7.20;99.90;;;;;;5129089;27;20046;-81
2022/11/30 12:15:15;;;;;;;34.65;20.67;;;7.20;99.90;;;;;;5095200;27;20035;-81
2022/11/30 12:18:01;;;;;;;34.15;19.30;;;7.10;99.90;;;;;;5130270;27;20035;-81
2022/11/30 12:20:45;;;;;;;38.03;20.42;;;7.20;99.90;;;;;;5128642;27;20050;-81
2022/11/30 12:23:47;;;;;;;41.33;20.75;;;7.20;99.90;;;;;;5130371;27;20103;-81
2022/11/30 12:26:31;;;;;;;40.53;21.65;;;7.20;99.90;;;;;;5129302;27;20039;-82
2022/11/30 12:29:23;;;;;;;36.47;20.40;;;7.20;99.90;;;;;;5128764;27;20104;-81
2022/11/30 12:32:12;;;;;;;39.40;20.92;;;7.40;99.90;;;;;;5112829;27;20427;-82
2022/11/30 12:34:54;;;;;;;36.53;20.10;;;7.20;99.90;;;;;;5064779;27;20564;-85
2022/11/30 12:37:27;;;;;;;34.33;18.77;;;7.20;99.90;;;;;;5129344;27;20397;-83
2022/11/30 12:40:16;;;;;;;38.22;20.30;;;7.20;99.90;;;;;;5113055;27;20385;-80
2022/11/30 12:43:18;;;;;;;33.40;19.17;;;7.20;99.90;;;;;;5112017;27;20506;-80
2022/11/30 12:45:46;;;;;;;37.53;21.50;;;7.20;99.90;;;;;;5111573;27;20034;-81
2022/11/30 12:48:56;;;;;;;43.58;21.88;;;7.20;99.90;;;;;;5129689;27;20051;-81
2022/11/30 12:51:43;;;;;;;35.92;19.40;;;7.20;99.90;;;;;;5009429;28;20048;-80
2022/11/30 12:54:17;;;;;;;38.95;22.33;;;7.40;99.90;;;;;;5009505;28;20089;-80
2022/11/30 12:56:52;;;;;;;39.67;21.92;;;7.20;99.90;;;;;;5095506;27;20050;-80